This is the latest recevied weather packets stored in our database for station/object K4HOG. If no packets are shown the sender has not sent any weather packets the latest 10 day(s).
| Time | Temp. | Humidity | Pressure | Rain* | Wind** | Luminosity | Snow |
|---|---|---|---|---|---|---|---|
| 1777832683 | 25.56° C | 48% | 1017.6 hPa | 0 mm | - | 915 W/m² | - |
| 1777832380 | 25.56° C | 53% | 1017.5 hPa | 0 mm | - | 881 W/m² | - |
| 1777832077 | 26.11° C | 51% | 1017.4 hPa | 0 mm | - | 951 W/m² | - |
| 1777831773 | 25.56° C | 50% | 1017.5 hPa | 0 mm | - | 932 W/m² | - |
| 1777831472 | 25° C | 55% | 1017.6 hPa | 0 mm | - | 935 W/m² | - |
| 1777831168 | 25° C | 52% | 1017.7 hPa | 0 mm | - | 1034 W/m² | - |
| 1777830866 | 25° C | 52% | 1017.7 hPa | 0 mm | - | 966 W/m² | - |
| 1777830561 | 25.56° C | 53% | 1017.8 hPa | 0 mm | - | 976 W/m² | - |
| 1777830260 | 26.11° C | 49% | 1017.8 hPa | 0 mm | - | 962 W/m² | - |
| 1777829960 | 25° C | 53% | 1017.6 hPa | 0 mm | - | 947 W/m² | - |
| 1777829656 | 25° C | 53% | 1018.2 hPa | 0 mm | - | 918 W/m² | - |
| 1777829353 | 25.56° C | 53% | 1018.1 hPa | 0 mm | - | 922 W/m² | - |
| 1777829051 | 25.56° C | 51% | 1018 hPa | 0 mm | - | 981 W/m² | - |
| 1777828747 | 25° C | 56% | 1018.3 hPa | 0 mm | - | 916 W/m² | - |
| 1777828444 | 24.44° C | 55% | 1018.3 hPa | 0 mm | - | 938 W/m² | - |
| 1777828141 | 24.44° C | 53% | 1018.3 hPa | 0 mm | - | 956 W/m² | - |
| 1777827837 | 25° C | 53% | 1018.2 hPa | 0 mm | - | 940 W/m² | - |
| 1777827534 | 25° C | 54% | 1018.2 hPa | 0 mm | - | 926 W/m² | - |
| 1777827232 | 25° C | 55% | 1018.3 hPa | 0 mm | - | 920 W/m² | - |
| 1777826928 | 24.44° C | 58% | 1018.4 hPa | 0 mm | - | 959 W/m² | - |
| 1777826626 | 23.89° C | 59% | 1018.4 hPa | 0 mm | - | 948 W/m² | - |
| 1777826321 | 23.33° C | 61% | 1018.4 hPa | 0 mm | - | 984 W/m² | - |
| 1777826019 | 23.89° C | 58% | 1018.6 hPa | 0 mm | - | 220 W/m² | - |
| 1777825716 | 24.44° C | 56% | 1018.6 hPa | 0 mm | - | 924 W/m² | - |
| 1777825414 | 23.89° C | 60% | 1018.6 hPa | 0 mm | - | 921 W/m² | - |
* Rain latest hour (hover to see other rain measurements)
** Current wind speed in m/s (hover to see current wind gust speed)